Time;durP1;ratioP1;P1;durP2;ratioP2;P2;SDS_P1;SDS_P2;PMS_P1;PMS_P2;Temp;Humidity;BMP_temperature;BMP_pressure;BME280_temperature;BME280_humidity;BME280_pressure;Samples;Min_cycle;Max_cycle;Signal;HPM_P1;HPM_P2
2022/08/14 00:00:41;;;;;;;51.50;32.42;;;;;;;22.01;66.58;100052.16;5027558;28;20041;-94
2022/08/14 00:03:22;;;;;;;49.22;29.92;;;;;;;21.82;67.05;100037.06;5014736;28;20038;-95
2022/08/14 00:06:15;;;;;;;50.73;30.17;;;;;;;21.84;67.51;100062.28;5065496;23;20089;31
2022/08/14 00:09:26;;;;;;;48.97;30.88;;;;;;;21.84;67.21;100054.88;4993368;28;20317;-94
2022/08/14 00:12:15;;;;;;;54.47;30.52;;;;;;;21.50;67.42;100005.69;5012523;28;20046;-96
2022/08/14 00:17:47;;;;;;;45.30;29.30;;;;;;;21.56;68.37;100031.19;4958755;28;20475;-96
2022/08/14 00:27:10;;;;;;;39.40;28.20;;;;;;;21.60;68.38;100021.41;5226468;23;20076;-95
2022/08/14 00:30:28;;;;;;;42.67;27.33;;;;;;;21.50;68.05;99996.66;5028629;28;20169;-96
2022/08/14 00:33:38;;;;;;;38.70;28.13;;;;;;;21.55;68.65;100018.63;4903707;22;20054;-95
2022/08/14 00:36:09;;;;;;;40.03;26.38;;;;;;;21.36;68.68;100003.50;5037119;23;20125;-96
2022/08/14 00:39:19;;;;;;;38.00;25.15;;;;;;;21.19;68.41;99982.47;5006170;28;20051;-96
2022/08/14 00:48:36;;;;;;;30.60;22.23;;;;;;;21.24;68.60;100015.34;5028570;28;20053;-92
2022/08/14 00:51:59;;;;;;;37.45;21.42;;;;;;;21.07;68.53;99990.72;5025055;28;20021;-96
2022/08/14 01:00:57;;;;;;;33.85;20.45;;;;;;;21.01;69.52;100026.41;5376672;23;20030;-92
2022/08/14 01:13:13;;;;;;;29.75;19.60;;;;;;;21.15;69.39;100035.13;5152213;23;20084;-90
2022/08/14 01:16:29;;;;;;;28.70;19.35;;;;;;;21.07;69.83;100036.34;5045158;28;20046;-91
2022/08/14 01:22:08;;;;;;;34.90;19.25;;;;;;;21.18;69.61;100040.09;5784526;22;20057;-95
2022/08/14 01:31:22;;;;;;;61.90;38.28;;;;;;;21.26;67.66;100037.78;4997725;28;20093;-92
2022/08/14 01:44:27;;;;;;;65.47;40.58;;;;;;;21.13;67.68;100043.56;5488719;22;20050;31
2022/08/14 02:08:50;;;;;;;48.53;31.90;;;;;;;20.93;67.20;99994.00;5012404;28;20054;-94
2022/08/14 02:12:26;;;;;;;41.70;29.20;;;;;;;21.05;67.08;100022.94;4981414;28;20063;-95
2022/08/14 02:18:16;;;;;;;41.33;27.48;;;;;;;21.06;67.15;100027.31;5007014;28;20042;-95
2022/08/14 04:26:09;;;;;;;26.70;17.80;;;;;;;21.71;64.77;100006.84;5930691;23;20025;31
2022/08/14 04:29:15;;;;;;;32.88;19.30;;;;;;;21.50;65.22;99988.47;4896890;29;20089;-94
2022/08/14 04:32:27;;;;;;;31.67;19.17;;;;;;;21.78;65.17;100025.00;4870139;29;20055;-95
2022/08/14 04:35:24;;;;;;;27.13;19.85;;;;;;;21.76;64.99;100010.72;4892479;29;20053;-96
2022/08/14 04:44:39;;;;;;;26.95;19.40;;;;;;;21.91;64.81;100005.47;5104244;23;20075;-95
2022/08/14 04:49:54;;;;;;;29.80;19.35;;;;;;;22.29;63.67;100026.56;5030066;23;20161;-93
2022/08/14 04:52:22;;;;;;;24.73;19.42;;;;;;;22.10;63.60;99993.16;5014055;28;20093;-92
2022/08/14 04:54:49;;;;;;;32.05;20.10;;;;;;;22.34;63.46;100021.16;4987922;28;20118;-94
2022/08/14 04:57:20;;;;;;;31.38;19.63;;;;;;;22.66;62.70;100014.94;4994425;28;20029;-94
2022/08/14 04:59:53;;;;;;;29.67;18.77;;;;;;;22.82;61.29;99991.28;5002335;28;20047;-93
2022/08/14 05:03:07;;;;;;;27.67;19.33;;;;;;;23.08;60.54;99986.09;5003949;28;20042;-94
2022/08/14 05:05:42;;;;;;;29.77;17.05;;;;;;;23.54;59.65;99994.72;4994484;28;20042;-93
2022/08/14 05:10:56;;;;;;;29.13;16.47;;;;;;;24.10;57.57;99988.78;5022486;23;20081;-92
2022/08/14 05:13:27;;;;;;;31.05;17.00;;;;;;;24.43;56.40;99995.78;4978173;28;20359;-90
2022/08/14 05:15:54;;;;;;;24.92;16.83;;;;;;;24.55;56.05;99979.94;4992152;28;20047;-91
2022/08/14 05:18:40;;;;;;;21.65;16.63;;;;;;;24.90;54.87;99989.34;4984121;28;20031;-96
2022/08/14 05:21:09;;;;;;;25.45;16.10;;;;;;;25.31;54.69;100003.19;4978915;28;20502;-96
2022/08/14 05:26:43;;;;;;;26.48;17.08;;;;;;;25.66;53.18;99973.97;5112560;23;20085;-95
2022/08/14 05:29:30;;;;;;;23.58;17.45;;;;;;;25.94;52.70;99971.75;4980946;28;20565;-95
2022/08/14 05:32:26;;;;;;;26.75;16.55;;;;;;;26.17;51.80;99968.38;4988577;28;20044;-94
2022/08/14 05:43:51;;;;;;;24.85;16.10;;;;;;;27.55;48.87;99989.59;4453508;23;20311;-94
2022/08/14 05:46:28;;;;;;;25.50;16.23;;;;;;;27.67;48.80;99993.91;4942104;29;20074;-94
2022/08/14 05:48:55;;;;;;;23.90;16.95;;;;;;;27.80;48.63;99990.47;4939984;29;20023;-95
2022/08/14 05:51:25;;;;;;;24.92;18.45;;;;;;;27.82;47.96;99977.19;4912468;29;20578;-95
2022/08/14 05:53:53;;;;;;;31.67;19.15;;;;;;;28.14;47.80;99984.88;4923930;29;20091;-94
2022/08/14 05:57:06;;;;;;;24.88;19.30;;;;;;;28.36;47.00;99989.84;4965444;28;20027;-96
2022/08/14 05:59:37;;;;;;;25.27;18.98;;;;;;;28.70;46.63;99988.88;4944136;28;20075;-88
2022/08/14 06:02:11;;;;;;;24.63;18.75;;;;;;;28.96;45.66;99985.72;4933371;28;20043;-96
2022/08/14 06:04:47;;;;;;;27.15;19.65;;;;;;;29.12;45.41;99989.94;4955395;28;20058;-95
2022/08/14 06:07:14;;;;;;;32.97;20.13;;;;;;;28.95;44.99;99968.31;4935734;28;20031;-94
2022/08/14 06:09:41;;;;;;;29.92;19.85;;;;;;;29.17;45.02;99987.09;4926177;29;20044;-95
2022/08/14 06:12:09;;;;;;;26.35;19.52;;;;;;;29.22;45.48;99986.16;4929813;29;20027;-93
2022/08/14 06:14:42;;;;;;;30.02;20.50;;;;;;;29.38;44.84;99987.56;4913317;29;20472;-93
2022/08/14 06:17:12;;;;;;;23.42;19.60;;;;;;;29.33;44.83;99975.75;4924002;29;20385;-93
2022/08/14 06:19:41;;;;;;;27.65;18.10;;;;;;;29.27;44.47;99957.59;4933245;28;20476;-94
2022/08/14 06:22:32;;;;;;;23.02;16.60;;;;;;;29.51;43.97;99969.34;4939722;29;20051;-93
2022/08/14 06:24:59;;;;;;;23.70;16.23;;;;;;;29.57;44.01;99982.00;4926796;29;20103;-92
2022/08/14 06:27:56;;;;;;;26.05;17.67;;;;;;;29.60;43.80;99967.53;4947618;29;20095;-93
2022/08/14 06:30:44;;;;;;;25.15;15.10;;;;;;;29.95;42.96;99965.25;4976645;28;20023;-93
2022/08/14 06:33:10;;;;;;;23.58;15.30;;;;;;;30.05;42.77;99978.06;4935699;29;20424;-93
2022/08/14 06:35:41;;;;;;;22.33;16.05;;;;;;;29.94;42.92;99960.81;4948701;28;20122;-94
2022/08/14 06:38:24;;;;;;;24.58;15.73;;;;;;;30.13;42.38;99974.56;4939671;29;20039;-94
2022/08/14 06:40:55;;;;;;;22.55;16.80;;;;;;;29.95;42.85;99956.13;4952569;28;20039;-92
2022/08/14 06:43:22;;;;;;;20.65;15.57;;;;;;;30.18;42.50;99974.50;4944448;29;20130;-95
2022/08/14 06:45:53;;;;;;;21.55;15.65;;;;;;;30.14;42.19;99947.69;4964164;28;20043;-96
2022/08/14 06:48:23;;;;;;;23.88;15.05;;;;;;;30.49;41.77;99963.59;4903398;29;20198;-95
2022/08/14 06:51:09;;;;;;;21.60;14.50;;;;;;;30.92;41.27;99973.47;4933612;29;20505;-93
2022/08/14 06:53:45;;;;;;;24.48;15.27;;;;;;;31.15;40.60;99965.97;4932411;29;20070;-93
2022/08/14 06:56:26;;;;;;;20.50;15.13;;;;;;;31.31;40.31;99944.22;4960966;29;20043;-96
2022/08/14 07:07:19;;;;;;;21.92;15.95;;;;;;;31.44;39.67;99950.84;5023178;23;20058;-87
2022/08/14 07:09:45;;;;;;;24.13;14.98;;;;;;;31.34;39.86;99947.16;4972846;28;20026;-92
2022/08/14 07:12:13;;;;;;;20.65;14.32;;;;;;;31.89;39.21;99962.69;4971006;28;20946;-94
2022/08/14 07:14:40;;;;;;;18.30;13.60;;;;;;;31.99;39.14;99964.38;4975651;28;20050;-95
2022/08/14 07:17:57;;;;;;;24.92;14.30;;;;;;;32.02;38.90;99972.06;4997526;28;20053;-95
2022/08/14 07:20:27;;;;;;;20.13;13.50;;;;;;;32.45;37.91;99957.47;4980628;28;20046;-92
2022/08/14 07:22:59;;;;;;;21.77;15.07;;;;;;;32.44;37.59;99941.09;4981702;28;20068;-92
2022/08/14 07:25:27;;;;;;;23.50;14.20;;;;;;;32.08;38.95;99945.78;4997637;28;20033;-89
2022/08/14 07:27:53;;;;;;;19.10;12.57;;;;;;;32.59;38.40;99960.97;4959384;28;20038;-88
2022/08/14 07:30:20;;;;;;;24.20;12.45;;;;;;;32.79;37.76;99969.81;4955224;28;20499;-89
2022/08/14 07:32:48;;;;;;;21.25;11.73;;;;;;;33.01;37.62;99969.66;4964968;28;20035;-90
2022/08/14 07:35:13;;;;;;;18.13;11.82;;;;;;;33.05;37.27;99952.31;4972795;28;20042;-89
2022/08/14 07:37:41;;;;;;;19.42;12.10;;;;;;;33.06;37.48;99959.50;4979072;28;20042;-90
2022/08/14 07:40:11;;;;;;;16.40;11.63;;;;;;;32.98;37.23;99961.94;4966003;28;20249;-88
2022/08/14 07:42:37;;;;;;;21.52;11.57;;;;;;;32.46;37.84;99938.81;4991055;28;20026;-89
2022/08/14 07:45:03;;;;;;;22.83;11.98;;;;;;;32.79;38.02;99944.75;4958349;28;20041;-89
2022/08/14 07:47:31;;;;;;;23.05;12.35;;;;;;;32.65;38.20;99963.59;4977932;28;20038;-90
2022/08/14 07:50:00;;;;;;;18.27;11.85;;;;;;;32.92;38.04;99954.06;4981132;28;20066;-89
2022/08/14 07:52:27;;;;;;;19.63;11.85;;;;;;;33.25;36.48;99940.50;4978931;28;20039;-90
2022/08/14 07:54:55;;;;;;;19.23;11.57;;;;;;;33.71;36.70;99947.25;4972401;28;20050;-94
2022/08/14 07:57:30;;;;;;;17.50;12.30;;;;;;;33.88;36.20;99942.75;4960673;28;20448;-89
2022/08/14 07:59:58;;;;;;;15.18;11.57;;;;;;;33.85;36.29;99927.53;5004648;28;20054;-91
2022/08/14 08:02:30;;;;;;;18.80;12.40;;;;;;;34.12;35.12;99934.66;4978330;28;20035;-92
2022/08/14 08:04:56;;;;;;;20.35;11.43;;;;;;;34.28;35.30;99945.22;4974585;28;20042;-90
2022/08/14 08:07:25;;;;;;;17.45;11.30;;;;;;;34.50;34.64;99938.50;4977956;28;20129;-92
2022/08/14 08:09:57;;;;;;;20.08;11.48;;;;;;;34.61;34.21;99939.78;4963410;28;20039;-95
2022/08/14 08:12:24;;;;;;;16.85;11.52;;;;;;;34.37;35.05;99943.19;4974058;28;20019;-93
2022/08/14 08:14:53;;;;;;;18.52;11.48;;;;;;;34.24;35.43;99942.28;4961771;28;20436;-91
2022/08/14 08:17:22;;;;;;;22.80;11.50;;;;;;;34.96;33.86;99911.53;4977795;28;20088;-92
2022/08/14 08:19:51;;;;;;;18.30;11.45;;;;;;;35.37;33.17;99930.22;4991392;28;20049;-93
2022/08/14 08:22:19;;;;;;;16.77;11.38;;;;;;;35.28;32.51;99926.69;4973356;28;20471;-92
2022/08/14 08:24:47;;;;;;;18.45;12.00;;;;;;;35.32;33.33;99916.47;4957709;28;20031;-94
2022/08/14 08:27:36;;;;;;;17.15;11.68;;;;;;;35.88;32.05;99930.78;4967595;28;20038;-89
2022/08/14 08:30:08;;;;;;;19.15;11.63;;;;;;;35.15;33.51;99913.88;4966248;28;20177;-90
2022/08/14 08:32:40;;;;;;;18.27;11.65;;;;;;;35.22;33.84;99931.69;4964128;28;20045;-88
2022/08/14 08:35:22;;;;;;;19.17;13.40;;;;;;;35.36;33.58;99914.63;4956231;28;20054;-85
2022/08/14 08:37:48;;;;;;;19.02;11.90;;;;;;;35.41;32.98;99924.75;4977617;28;20033;-87
2022/08/14 08:40:24;;;;;;;19.63;11.88;;;;;;;35.43;33.63;99922.44;4991899;28;20121;-90
2022/08/14 08:42:51;;;;;;;21.20;12.38;;;;;;;36.52;32.24;99920.00;4981082;28;20145;-89
2022/08/14 08:45:21;;;;;;;18.98;12.30;;;;;;;37.46;30.58;99917.88;4952898;28;20022;-89
2022/08/14 08:47:54;;;;;;;16.88;11.80;;;;;;;37.65;30.18;99920.00;4976212;28;20089;-88
2022/08/14 08:50:20;;;;;;;17.23;12.13;;;;;;;37.07;30.49;99918.47;4973340;28;20395;-93
2022/08/14 08:52:58;;;;;;;20.08;12.50;;;;;;;36.01;32.24;99911.19;4999019;28;20117;-88
2022/08/14 08:55:46;;;;;;;20.00;12.05;;;;;;;36.70;31.43;99915.78;4983354;28;20049;-92
2022/08/14 08:58:17;;;;;;;18.45;12.15;;;;;;;36.28;32.16;99904.91;4983127;28;20464;-93
2022/08/14 09:00:52;;;;;;;16.38;12.15;;;;;;;36.57;32.09;99900.16;4973531;28;20038;-88
2022/08/14 09:03:30;;;;;;;16.85;12.90;;;;;;;35.84;33.22;99906.66;4993350;28;20113;-91
2022/08/14 09:06:02;;;;;;;19.35;12.57;;;;;;;35.65;33.36;99896.84;4991161;28;20046;-89
2022/08/14 09:08:33;;;;;;;21.05;12.30;;;;;;;35.92;33.52;99895.34;4971730;28;20038;-89
2022/08/14 09:11:08;;;;;;;18.70;11.68;;;;;;;37.52;30.94;99894.81;4972837;28;20034;-84
2022/08/14 09:13:34;;;;;;;17.55;12.35;;;;;;;37.56;30.85;99884.56;4948629;28;20134;-88
2022/08/14 09:16:00;;;;;;;17.52;12.00;;;;;;;38.36;29.70;99890.06;4969245;28;20034;-87
2022/08/14 09:18:26;;;;;;;20.15;12.43;;;;;;;39.50;28.20;99883.13;4955878;28;20030;-92
2022/08/14 09:21:00;;;;;;;21.35;12.07;;;;;;;39.45;28.04;99875.81;4978937;28;20554;-88
2022/08/14 09:23:27;;;;;;;20.52;12.38;;;;;;;39.64;27.70;99872.13;4963294;28;20053;-88
2022/08/14 09:26:00;;;;;;;18.80;12.43;;;;;;;39.37;28.38;99888.13;4973237;28;20026;-92
2022/08/14 09:28:26;;;;;;;19.77;12.90;;;;;;;40.38;27.13;99887.72;4978608;28;20475;-87
2022/08/14 09:30:55;;;;;;;14.32;11.82;;;;;;;40.76;26.96;99882.97;4976371;28;20026;-90
2022/08/14 09:33:59;;;;;;;20.13;12.52;;;;;;;39.80;28.37;99868.31;4996587;28;20106;-88
2022/08/14 09:36:47;;;;;;;18.75;12.38;;;;;;;40.14;27.53;99871.28;4975372;28;20039;-93
2022/08/14 09:39:49;;;;;;;15.57;11.52;;;;;;;40.06;27.11;99854.28;4996706;28;20035;-95
2022/08/14 09:42:33;;;;;;;19.50;12.55;;;;;;;40.56;26.86;99867.44;5003235;28;20073;-91
2022/08/14 09:45:31;;;;;;;17.58;12.20;;;;;;;41.29;26.14;99865.84;4973621;28;20050;-95
2022/08/14 09:47:57;;;;;;;17.55;12.35;;;;;;;39.67;28.16;99860.09;4975573;28;20160;-89
2022/08/14 09:50:29;;;;;;;19.33;13.43;;;;;;;40.13;27.65;99858.38;4976123;28;20077;-88
2022/08/14 09:53:01;;;;;;;21.10;12.75;;;;;;;40.14;27.71;99860.81;4993458;28;20058;-89
2022/08/14 09:55:29;;;;;;;16.50;13.65;;;;;;;40.75;27.29;99867.28;4973871;28;20030;-86
2022/08/14 09:58:08;;;;;;;18.15;12.80;;;;;;;41.40;26.77;99863.16;4965835;28;20491;-89
2022/08/14 10:00:58;;;;;;;17.20;12.18;;;;;;;40.45;27.94;99859.66;4976449;28;20068;-89
2022/08/14 10:03:33;;;;;;;17.92;11.93;;;;;;;40.27;28.25;99858.59;4968830;28;20038;-89
2022/08/14 10:06:16;;;;;;;21.02;12.98;;;;;;;40.02;28.26;99859.06;4975751;28;20121;-88
2022/08/14 10:08:52;;;;;;;16.58;12.63;;;;;;;41.11;26.71;99864.84;5000089;28;20038;-86
2022/08/14 10:11:23;;;;;;;17.58;11.60;;;;;;;41.92;25.68;99860.34;4998506;28;20018;-86
2022/08/14 10:13:54;;;;;;;17.20;12.18;;;;;;;40.14;27.92;99866.44;5008212;28;20494;-89
2022/08/14 10:16:29;;;;;;;19.40;12.25;;;;;;;39.15;29.38;99872.84;4974355;28;20069;-88
2022/08/14 10:19:08;;;;;;;19.38;12.77;;;;;;;39.14;29.31;99847.91;4982388;28;20034;-89
2022/08/14 10:21:35;;;;;;;19.52;12.45;;;;;;;39.20;29.83;99864.09;4983392;28;20062;-94
2022/08/14 10:24:02;;;;;;;19.73;12.23;;;;;;;39.24;29.44;99864.97;4960713;28;20096;-94
2022/08/14 10:26:30;;;;;;;20.88;11.75;;;;;;;38.29;30.66;99865.44;4982421;28;20031;-89
2022/08/14 10:29:16;;;;;;;16.38;12.45;;;;;;;39.07;29.70;99859.84;4981629;28;20052;-91
2022/08/14 10:31:44;;;;;;;21.63;12.30;;;;;;;39.10;29.54;99856.28;4969668;28;20948;-93
2022/08/14 10:34:12;;;;;;;18.17;12.15;;;;;;;37.12;32.43;99869.75;4982997;28;20038;-94
2022/08/14 10:36:43;;;;;;;17.55;11.77;;;;;;;37.89;31.05;99866.53;4962956;28;20051;-91
2022/08/14 10:39:31;;;;;;;15.60;11.52;;;;;;;37.67;32.10;99867.16;4953966;28;21665;-92
2022/08/14 10:42:26;;;;;;;19.48;11.98;;;;;;;36.72;33.07;99867.84;4968322;28;20039;-91
2022/08/14 10:44:52;;;;;;;15.45;11.27;;;;;;;37.72;31.33;99870.53;4953665;28;20039;-90
2022/08/14 10:47:18;;;;;;;20.67;11.35;;;;;;;38.08;31.01;99860.16;4974561;28;20041;-90
2022/08/14 10:49:59;;;;;;;17.35;10.93;;;;;;;38.08;31.24;99862.16;4968784;28;20042;-88
2022/08/14 10:52:30;;;;;;;17.23;11.73;;;;;;;37.38;32.23;99863.63;4973701;28;20034;-89
2022/08/14 10:55:38;;;;;;;17.85;11.27;;;;;;;37.75;31.96;99852.16;4987345;28;20057;-87
2022/08/14 10:58:09;;;;;;;14.65;11.32;;;;;;;38.44;30.65;99850.50;4955383;28;20023;-89
2022/08/14 11:00:35;;;;;;;13.90;10.75;;;;;;;37.47;31.93;99839.03;4994162;28;20117;-86
2022/08/14 11:03:08;;;;;;;16.00;10.45;;;;;;;37.10;32.39;99836.50;4974480;28;20133;-87
2022/08/14 11:06:00;;;;;;;13.90;10.97;;;;;;;35.52;33.96;99828.13;4975537;28;20439;-89
2022/08/14 11:08:33;;;;;;;19.13;11.00;;;;;;;35.36;35.81;99825.22;4975580;28;20078;-87
2022/08/14 11:11:01;;;;;;;16.13;11.05;;;;;;;35.88;34.45;99824.50;4989591;28;20042;-85
2022/08/14 11:13:30;;;;;;;13.23;11.10;;;;;;;35.23;36.01;99823.56;4974681;28;20057;-89
2022/08/14 11:16:01;;;;;;;18.42;10.82;;;;;;;34.70;36.41;99831.66;4972286;28;20086;-87
2022/08/14 11:18:27;;;;;;;12.38;10.50;;;;;;;35.38;35.54;99838.81;4965430;28;20126;-88
2022/08/14 11:20:58;;;;;;;16.90;11.20;;;;;;;35.63;35.59;99822.91;4951854;28;20046;-88
2022/08/14 11:23:36;;;;;;;14.93;11.10;;;;;;;35.26;36.04;99826.47;4973590;28;20037;-85
2022/08/14 11:26:08;;;;;;;15.73;11.35;;;;;;;34.90;36.76;99807.63;4965904;28;20478;-85
2022/08/14 11:28:39;;;;;;;13.95;11.27;;;;;;;34.57;37.36;99827.97;4990081;28;20434;-87
2022/08/14 11:31:04;;;;;;;16.02;10.70;;;;;;;35.13;36.89;99826.81;4969168;28;20065;-87
2022/08/14 11:33:31;;;;;;;15.13;11.25;;;;;;;35.19;36.94;99831.00;4974267;28;20054;-88
2022/08/14 11:35:59;;;;;;;16.38;11.40;;;;;;;34.53;37.28;99827.00;4968655;28;20050;-90
2022/08/14 11:38:27;;;;;;;15.45;11.82;;;;;;;33.84;38.92;99823.56;4966020;28;20121;-87
2022/08/14 11:40:55;;;;;;;17.27;12.20;;;;;;;33.26;40.47;99833.50;4927020;28;20081;-86
2022/08/14 11:43:24;;;;;;;17.90;12.68;;;;;;;33.21;40.59;99839.25;4945509;28;20057;-89
2022/08/14 11:45:59;;;;;;;17.65;12.27;;;;;;;32.87;40.34;99821.44;4962441;28;20038;-89
2022/08/14 11:48:24;;;;;;;;;;;;;;;32.84;41.17;99836.03;4992104;28;20100;-89
2022/08/14 11:50:55;;;;;;;20.27;12.25;;;;;;;32.42;41.82;99813.47;4988416;28;19962;-87
2022/08/14 11:53:27;;;;;;;16.65;11.55;;;;;;;32.77;41.23;99819.03;4968340;28;20352;-88
2022/08/14 11:55:57;;;;;;;16.92;12.65;;;;;;;32.34;42.68;99822.66;4953671;28;20112;-89
2022/08/14 11:58:36;;;;;;;15.80;12.25;;;;;;;32.06;43.39;99820.16;4970740;28;20041;-88
2022/08/14 12:01:08;;;;;;;19.35;13.52;;;;;;;31.84;44.27;99817.47;4973193;28;20027;-89
2022/08/14 12:03:41;;;;;;;18.60;12.50;;;;;;;31.40;45.24;99811.81;4956876;28;20493;-86
2022/08/14 12:06:36;;;;;;;17.80;12.80;;;;;;;31.48;45.27;99796.31;4953037;28;20587;-88
2022/08/14 12:09:01;;;;;;;19.50;13.32;;;;;;;31.11;45.59;99795.63;4966205;28;20031;-87
2022/08/14 12:11:38;;;;;;;23.25;13.43;;;;;;;30.67;47.33;99805.63;4978595;28;20026;-89
2022/08/14 12:14:08;;;;;;;17.50;13.18;;;;;;;30.49;47.68;99801.94;4992036;28;20026;-89
2022/08/14 12:16:34;;;;;;;18.00;13.13;;;;;;;30.24;48.39;99795.00;4991515;28;20105;-87
2022/08/14 12:19:02;;;;;;;20.58;13.80;;;;;;;29.59;50.74;99810.78;4970465;28;20038;-86
2022/08/14 12:21:28;;;;;;;20.27;14.65;;;;;;;29.62;50.49;99798.31;4986915;28;20039;-87
2022/08/14 12:24:06;;;;;;;19.88;14.30;;;;;;;29.60;51.01;99781.19;4941049;28;20412;-86
2022/08/14 12:26:32;;;;;;;19.52;13.43;;;;;;;29.49;50.75;99797.16;4989204;28;20042;-88
2022/08/14 12:29:15;;;;;;;14.95;12.68;;;;;;;29.80;49.89;99796.56;4975284;28;20470;-89
2022/08/14 12:31:42;;;;;;;16.08;13.32;;;;;;;29.88;49.53;99806.91;4955468;28;20430;-90
2022/08/14 12:34:16;;;;;;;21.02;14.27;;;;;;;29.47;51.12;99802.19;4969661;28;20526;-90
2022/08/14 12:36:42;;;;;;;16.73;13.27;;;;;;;29.73;50.68;99815.53;4960832;28;20207;-88
2022/08/14 12:39:19;;;;;;;17.38;14.07;;;;;;;29.54;51.34;99794.28;4972658;28;20052;-88
2022/08/14 12:42:05;;;;;;;19.88;14.30;;;;;;;29.69;50.89;99797.91;4971760;28;20475;-88
2022/08/14 12:44:33;;;;;;;19.02;13.75;;;;;;;30.09;50.36;99813.63;4959646;28;20046;-93
2022/08/14 12:47:19;;;;;;;19.95;13.30;;;;;;;29.85;50.11;99810.28;4977025;28;20034;-90
2022/08/14 12:50:07;;;;;;;20.52;13.38;;;;;;;30.16;50.12;99806.84;4980780;28;20121;-94
2022/08/14 12:52:39;;;;;;;18.27;12.93;;;;;;;30.40;49.61;99812.94;4988948;28;20038;-94
2022/08/14 12:55:09;;;;;;;17.77;13.40;;;;;;;30.81;48.23;99813.88;4954423;28;20086;-92
2022/08/14 12:57:43;;;;;;;17.55;12.57;;;;;;;30.94;47.48;99792.78;4978034;28;20385;-94
2022/08/14 13:00:21;;;;;;;13.38;10.90;;;;;;;30.41;46.38;99802.66;4970767;28;20054;-93
2022/08/14 13:02:56;;;;;;;15.23;11.85;;;;;;;30.52;47.38;99792.16;4977675;28;20038;-92
2022/08/14 13:05:30;;;;;;;14.13;11.18;;;;;;;30.14;46.71;99798.84;4969963;28;20187;-92
2022/08/14 13:07:56;;;;;;;15.80;12.68;;;;;;;29.78;50.06;99796.88;5012558;28;20106;-90
2022/08/14 13:10:21;;;;;;;18.77;12.73;;;;;;;29.04;51.96;99794.94;4957792;28;20483;-92
2022/08/14 13:12:51;;;;;;;17.92;12.00;;;;;;;29.13;52.21;99780.47;4963894;28;20074;-92
2022/08/14 13:15:19;;;;;;;18.35;12.77;;;;;;;28.85;53.33;99790.63;4954960;28;20128;-92
2022/08/14 13:17:50;;;;;;;16.90;12.43;;;;;;;28.78;53.91;99804.84;4978179;28;20035;-91
2022/08/14 13:20:20;;;;;;;16.60;12.00;;;;;;;28.54;54.42;99796.66;4972448;28;20035;-92
2022/08/14 13:22:47;;;;;;;17.55;10.90;;;;;;;28.34;50.85;99804.13;4958074;28;20038;-92
2022/08/14 13:25:48;;;;;;;14.95;11.60;;;;;;;28.00;54.39;99801.59;4993391;28;20121;-91
2022/08/14 13:28:18;;;;;;;17.63;11.25;;;;;;;27.97;54.43;99791.97;4972729;28;20054;-92
2022/08/14 13:30:44;;;;;;;14.77;11.60;;;;;;;27.89;54.82;99789.88;4971475;28;20035;-92
2022/08/14 13:33:11;;;;;;;18.73;10.70;;;;;;;27.89;52.95;99781.59;4967284;28;20049;-92
2022/08/14 13:35:41;;;;;;;19.00;11.60;;;;;;;27.85;54.03;99786.06;4968715;28;20411;-91
2022/08/14 13:38:08;;;;;;;14.45;11.70;;;;;;;27.90;54.35;99799.78;4969432;28;20058;-90
2022/08/14 13:40:34;;;;;;;18.02;10.93;;;;;;;27.63;54.05;99777.47;4965936;28;20483;-91
2022/08/14 13:43:01;;;;;;;15.20;10.75;;;;;;;27.42;54.14;99777.75;4962221;28;20069;-91
2022/08/14 13:45:30;;;;;;;14.85;9.10;;;;;;;27.22;54.92;99784.31;4946472;28;20418;-91
2022/08/14 13:48:02;;;;;;;13.30;8.60;;;;;;;27.04;55.07;99783.13;4964521;28;20053;-90
2022/08/14 13:50:43;;;;;;;16.48;9.30;;;;;;;27.00;55.14;99776.53;4973789;28;20050;-91
2022/08/14 13:53:12;;;;;;;11.32;7.88;;;;;;;26.81;55.51;99795.75;4966081;28;20120;-90
2022/08/14 13:55:40;;;;;;;11.82;7.70;;;;;;;26.91;55.58;99803.09;4956122;28;20383;-91
2022/08/14 13:58:07;;;;;;;11.38;8.00;;;;;;;27.02;55.57;99801.91;4949333;28;20107;-91
2022/08/14 14:00:39;;;;;;;18.27;7.63;;;;;;;26.87;55.39;99789.06;4939235;28;20046;-91
2022/08/14 14:03:06;;;;;;;10.77;7.88;;;;;;;26.83;55.55;99778.91;4977074;28;20019;-91
2022/08/14 14:05:36;;;;;;;12.50;8.23;;;;;;;26.64;55.95;99779.59;4955874;28;20014;-91
2022/08/14 14:08:03;;;;;;;15.27;8.20;;;;;;;26.83;55.44;99798.19;4975826;28;20058;-91
2022/08/14 14:10:31;;;;;;;15.82;8.35;;;;;;;26.72;55.27;99786.47;4964113;28;20023;-91
2022/08/14 14:13:03;;;;;;;12.38;7.45;;;;;;;26.74;55.34;99784.25;4976500;28;20070;-91
2022/08/14 14:15:32;;;;;;;9.40;7.63;;;;;;;26.72;55.41;99797.50;4955883;28;20476;-92
2022/08/14 14:18:01;;;;;;;13.00;7.45;;;;;;;26.70;55.49;99789.50;4956065;28;20443;-91
2022/08/14 14:20:26;;;;;;;10.50;8.20;;;;;;;26.71;55.46;99790.31;4974939;28;20038;-91
2022/08/14 14:23:04;;;;;;;12.27;8.13;;;;;;;26.67;55.46;99787.31;4995323;28;20114;-91
2022/08/14 14:25:33;;;;;;;12.70;7.90;;;;;;;26.78;55.44;99784.47;4994056;28;20037;-92
2022/08/14 14:27:58;;;;;;;12.07;7.80;;;;;;;26.93;54.69;99804.44;4960749;28;20030;-91
2022/08/14 14:30:28;;;;;;;12.30;8.00;;;;;;;26.85;54.61;99793.22;4971014;28;20038;-92
2022/08/14 14:32:54;;;;;;;11.35;8.13;;;;;;;26.97;54.71;99810.19;4957417;28;20101;-92
2022/08/14 14:35:21;;;;;;;14.07;8.18;;;;;;;26.88;54.51;99787.16;4953798;28;20074;-93
2022/08/14 14:37:47;;;;;;;9.65;7.88;;;;;;;26.95;54.74;99804.16;4981774;28;20070;-90
2022/08/14 14:40:15;;;;;;;16.40;9.50;;;;;;;26.91;55.18;99806.69;4954758;28;20047;-91
2022/08/14 14:42:50;;;;;;;12.32;8.90;;;;;;;26.81;55.48;99795.75;4973075;28;20558;-90
2022/08/14 14:45:18;;;;;;;12.88;8.50;;;;;;;27.08;54.81;99822.78;4963543;28;20042;-92
2022/08/14 14:47:52;;;;;;;15.73;9.20;;;;;;;27.14;54.49;99818.88;4959095;28;20030;-91
2022/08/14 14:50:20;;;;;;;17.53;8.70;;;;;;;27.11;54.08;99805.66;4966009;28;20038;-91
2022/08/14 14:52:48;;;;;;;14.82;8.80;;;;;;;27.10;54.01;99804.00;4976650;28;20551;-92
2022/08/14 14:55:20;;;;;;;12.82;7.78;;;;;;;27.14;53.54;99801.50;4992444;28;20553;-91
2022/08/14 14:57:49;;;;;;;12.25;7.90;;;;;;;27.08;53.47;99810.94;4991128;28;20046;-92
2022/08/14 15:00:16;;;;;;;18.80;8.43;;;;;;;26.98;54.31;99800.81;4989363;28;20043;-92
2022/08/14 15:02:44;;;;;;;16.05;9.32;;;;;;;27.04;53.97;99824.50;4963399;28;20034;-92
2022/08/14 15:05:16;;;;;;;18.05;10.40;;;;;;;26.91;53.91;99819.66;4987951;28;20141;-92
2022/08/14 15:07:43;;;;;;;17.17;12.20;;;;;;;26.65;54.38;99816.28;4957966;28;20062;-91
2022/08/14 15:10:11;;;;;;;19.27;14.10;;;;;;;26.55;54.55;99808.09;4975734;28;20494;-89
2022/08/14 15:12:45;;;;;;;20.77;13.95;;;;;;;26.45;55.17;99814.47;4970442;28;20037;-90
2022/08/14 15:15:11;;;;;;;17.77;12.07;;;;;;;26.44;55.30;99799.06;4983549;28;20268;-90
2022/08/14 15:17:45;;;;;;;16.65;10.63;;;;;;;26.56;55.62;99823.53;4965244;28;20576;-90
2022/08/14 15:20:21;;;;;;;16.90;10.45;;;;;;;26.41;55.89;99816.16;4993662;28;20113;-91
2022/08/14 15:22:46;;;;;;;15.30;9.48;;;;;;;26.43;56.89;99819.44;4975800;28;20042;-91
2022/08/14 15:25:13;;;;;;;14.10;9.40;;;;;;;26.45;56.93;99828.25;4971825;28;20034;-91
2022/08/14 15:27:44;;;;;;;14.65;9.73;;;;;;;26.22;57.97;99810.50;4980188;28;20086;-91
2022/08/14 15:30:17;;;;;;;19.73;13.75;;;;;;;25.86;58.79;99806.03;4975477;28;20068;-91
2022/08/14 15:32:42;;;;;;;22.67;13.02;;;;;;;26.07;58.36;99805.91;4957290;28;20030;-92
2022/08/14 15:35:12;;;;;;;16.45;12.32;;;;;;;25.97;58.54;99783.97;4991528;28;20408;-91
2022/08/14 15:37:38;;;;;;;23.48;11.50;;;;;;;25.88;58.41;99790.03;4998536;28;20035;-91
2022/08/14 15:40:10;;;;;;;19.23;10.75;;;;;;;26.00;57.55;99775.94;4964291;28;20065;-91
2022/08/14 15:42:39;;;;;;;19.70;11.57;;;;;;;26.10;58.00;99797.06;4979166;28;20030;-91
2022/08/14 15:45:09;;;;;;;17.45;10.45;;;;;;;25.86;57.50;99775.72;4988454;28;20035;-91